Time;durP1;ratioP1;P1;durP2;ratioP2;P2;SDS_P1;SDS_P2;PMS_P1;PMS_P2;Temp;Humidity;BMP_temperature;BMP_pressure;BME280_temperature;BME280_humidity;BME280_pressure;Samples;Min_cycle;Max_cycle;Signal;HPM_P1;HPM_P2
2022/09/09 00:00:15;;;;;;;6.40;4.80;;;;;;;;;;4976855;28;20237;-81
2022/09/09 00:02:46;;;;;;;5.50;4.63;;;;;;;;;;4976464;28;20329;-81
2022/09/09 00:05:19;;;;;;;2.03;1.87;;;;;;;;;;4993536;28;20238;-79
2022/09/09 00:07:49;;;;;;;3.50;2.97;;;;;;;;;;4976777;28;20207;-79
2022/09/09 00:10:22;;;;;;;3.80;2.53;;;;;;;;;;4987993;28;20197;-79
2022/09/09 00:12:56;;;;;;;4.13;2.80;;;;;;;;;;4970494;28;20203;-79
2022/09/09 00:15:26;;;;;;;3.93;2.83;;;;;;;;;;4993693;28;20211;-79
2022/09/09 00:17:58;;;;;;;7.53;4.43;;;;;;;;;;4977120;28;20196;-79
2022/09/09 00:20:30;;;;;;;6.43;3.67;;;;;;;;;;4976623;28;20220;-80
2022/09/09 00:23:01;;;;;;;3.27;2.97;;;;;;;;;;4976448;28;20217;-79
2022/09/09 00:25:31;;;;;;;8.37;5.63;;;;;;;;;;4976413;28;20204;-79
2022/09/09 00:28:01;;;;;;;8.40;4.50;;;;;;;;;;4976340;28;20195;-79
2022/09/09 00:30:33;;;;;;;9.37;5.60;;;;;;;;;;4976462;28;20207;-80
2022/09/09 00:33:04;;;;;;;6.13;4.57;;;;;;;;;;4976724;28;20204;-81
2022/09/09 00:35:34;;;;;;;6.97;5.23;;;;;;;;;;4980375;28;20208;-80
2022/09/09 00:38:04;;;;;;;6.37;5.77;;;;;;;;;;4997677;28;20200;-80
2022/09/09 00:40:34;;;;;;;7.57;6.17;;;;;;;;;;4997343;28;20214;-80
2022/09/09 00:43:13;;;;;;;7.00;5.13;;;;;;;;;;4979976;28;20203;-80
2022/09/09 00:46:00;;;;;;;5.97;5.00;;;;;;;;;;4980141;28;20207;-81
2022/09/09 00:48:35;;;;;;;10.13;6.10;;;;;;;;;;4979994;28;20277;-81
2022/09/09 00:51:06;;;;;;;6.30;5.00;;;;;;;;;;4972588;28;20197;-80
2022/09/09 00:53:41;;;;;;;8.43;6.57;;;;;;;;;;4975784;28;20237;-80
2022/09/09 00:56:13;;;;;;;5.97;4.63;;;;;;;;;;4997218;28;20302;-80
2022/09/09 00:58:44;;;;;;;4.33;3.67;;;;;;;;;;4980012;28;20195;-80
2022/09/09 01:01:13;;;;;;;5.93;3.93;;;;;;;;;;4979290;28;20335;-80
2022/09/09 01:03:45;;;;;;;6.93;6.23;;;;;;;;;;4996793;28;20243;-80
2022/09/09 01:06:16;;;;;;;7.83;6.30;;;;;;;;;;4979452;28;20290;-80
2022/09/09 01:08:54;;;;;;;8.67;6.80;;;;;;;;;;4995624;28;20206;-81
2022/09/09 01:11:24;;;;;;;9.90;7.13;;;;;;;;;;4974282;28;20203;-80
2022/09/09 01:13:59;;;;;;;7.93;5.73;;;;;;;;;;4978531;28;20227;-81
2022/09/09 01:16:28;;;;;;;10.13;7.47;;;;;;;;;;4979935;28;20210;-80
2022/09/09 01:18:57;;;;;;;8.93;5.97;;;;;;;;;;4996392;28;20211;-80
2022/09/09 01:21:31;;;;;;;10.97;7.23;;;;;;;;;;4996650;28;20294;-80
2022/09/09 01:24:10;;;;;;;13.23;8.43;;;;;;;;;;4979312;28;20207;-80
2022/09/09 01:26:41;;;;;;;10.00;7.70;;;;;;;;;;4979026;28;20222;-81
2022/09/09 01:29:10;;;;;;;14.60;9.47;;;;;;;;;;4996605;28;20278;-80
2022/09/09 01:31:40;;;;;;;10.90;8.63;;;;;;;;;;4996382;28;20219;-80
2022/09/09 01:34:13;;;;;;;10.00;8.97;;;;;;;;;;4979479;28;20206;-81
2022/09/09 01:36:44;;;;;;;14.33;10.13;;;;;;;;;;4979427;28;20192;-80
2022/09/09 01:39:13;;;;;;;6.23;4.27;;;;;;;;;;4979298;28;20203;-80
2022/09/09 01:41:43;;;;;;;12.60;8.97;;;;;;;;;;4996059;28;20243;-80
2022/09/09 01:44:11;;;;;;;13.20;10.93;;;;;;;;;;4978829;28;20218;-80
2022/09/09 01:46:39;;;;;;;17.27;12.90;;;;;;;;;;4995496;28;20267;-80
2022/09/09 01:49:09;;;;;;;15.23;9.00;;;;;;;;;;4966194;28;20242;-81
2022/09/09 01:51:39;;;;;;;17.10;9.97;;;;;;;;;;4979317;28;20297;-80
2022/09/09 01:54:08;;;;;;;18.70;11.33;;;;;;;;;;4978813;28;20261;-81
2022/09/09 01:56:39;;;;;;;13.07;10.30;;;;;;;;;;4978339;28;20226;-80
2022/09/09 01:59:19;;;;;;;11.77;8.60;;;;;;;;;;4979155;28;20194;-80
2022/09/09 02:01:55;;;;;;;13.60;12.10;;;;;;;;;;4995598;28;20297;-80
2022/09/09 02:04:32;;;;;;;9.40;7.93;;;;;;;;;;4978119;28;20237;-80
2022/09/09 02:07:01;;;;;;;20.77;13.30;;;;;;;;;;4983696;28;20203;-80
2022/09/09 02:09:31;;;;;;;24.27;16.07;;;;;;;;;;4995750;28;20242;-81
2022/09/09 02:12:02;;;;;;;15.37;11.00;;;;;;;;;;4970824;28;20239;-80
2022/09/09 02:14:36;;;;;;;20.30;14.87;;;;;;;;;;4990206;28;20204;-81
2022/09/09 02:17:07;;;;;;;22.57;14.37;;;;;;;;;;4978251;28;20294;-80
2022/09/09 02:19:38;;;;;;;18.80;11.87;;;;;;;;;;4977931;28;20225;-80
2022/09/09 02:22:07;;;;;;;10.80;8.93;;;;;;;;;;4967625;28;20262;-80
2022/09/09 02:24:36;;;;;;;24.33;15.73;;;;;;;;;;4959024;28;20234;-80
2022/09/09 02:27:08;;;;;;;19.57;13.57;;;;;;;;;;4970421;28;20240;-80
2022/09/09 02:29:41;;;;;;;16.57;11.00;;;;;;;;;;4978076;28;20201;-81
2022/09/09 02:32:11;;;;;;;9.00;6.40;;;;;;;;;;4978164;28;20210;-80
2022/09/09 02:34:42;;;;;;;23.97;18.73;;;;;;;;;;4977933;28;20225;-80
2022/09/09 02:37:11;;;;;;;24.90;17.83;;;;;;;;;;4994909;28;20210;-80
2022/09/09 02:39:39;;;;;;;7.27;5.13;;;;;;;;;;4977732;28;20274;-80
2022/09/09 02:42:08;;;;;;;25.87;17.80;;;;;;;;;;4992559;28;20292;-80
2022/09/09 02:44:37;;;;;;;22.10;18.37;;;;;;;;;;4967980;28;20260;-80
2022/09/09 02:47:23;;;;;;;22.40;16.50;;;;;;;;;;4977562;28;20269;-80
2022/09/09 02:49:59;;;;;;;21.60;14.70;;;;;;;;;;4971628;28;20305;-80
2022/09/09 02:52:28;;;;;;;23.13;15.90;;;;;;;;;;4995083;28;20202;-80
2022/09/09 02:54:59;;;;;;;2.30;2.20;;;;;;;;;;4994098;28;20210;-80
2022/09/09 02:57:29;;;;;;;6.57;5.93;;;;;;;;;;4966893;28;20203;-80
2022/09/09 02:59:59;;;;;;;0.50;0.50;;;;;;;;;;4994514;28;20290;-80
2022/09/09 03:02:27;;;;;;;7.50;5.23;;;;;;;;;;4977241;28;20236;-80
2022/09/09 03:04:57;;;;;;;6.60;4.43;;;;;;;;;;4995011;28;20268;-80
2022/09/09 03:07:27;;;;;;;7.40;4.60;;;;;;;;;;4977329;28;20227;-80
2022/09/09 03:09:55;;;;;;;13.73;9.73;;;;;;;;;;4964613;28;20195;-80
2022/09/09 03:12:24;;;;;;;7.00;4.43;;;;;;;;;;4977370;28;20202;-80
2022/09/09 03:14:55;;;;;;;3.80;3.40;;;;;;;;;;4977242;28;20210;-80
2022/09/09 03:17:24;;;;;;;5.60;4.30;;;;;;;;;;4994328;28;20230;-81
2022/09/09 03:19:54;;;;;;;10.80;6.97;;;;;;;;;;4976853;28;20253;-81
2022/09/09 03:22:25;;;;;;;3.37;3.07;;;;;;;;;;4976640;28;20224;-80
2022/09/09 03:24:53;;;;;;;0.80;0.80;;;;;;;;;;4967869;28;20206;-80
2022/09/09 03:27:21;;;;;;;4.87;3.73;;;;;;;;;;4964435;28;20207;-80
2022/09/09 03:29:51;;;;;;;13.87;11.43;;;;;;;;;;4977270;28;20258;-80
2022/09/09 03:32:22;;;;;;;13.70;10.23;;;;;;;;;;4963307;28;20263;-80
2022/09/09 03:34:50;;;;;;;11.07;9.90;;;;;;;;;;4966081;28;20299;-80
2022/09/09 03:37:18;;;;;;;13.37;9.30;;;;;;;;;;4993424;28;20290;-80
2022/09/09 03:39:48;;;;;;;9.70;8.10;;;;;;;;;;4977064;28;20216;-80
2022/09/09 03:42:18;;;;;;;7.17;6.47;;;;;;;;;;4976601;28;20249;-80
2022/09/09 03:44:49;;;;;;;3.07;1.50;;;;;;;;;;4994092;28;20290;-80
2022/09/09 03:47:21;;;;;;;12.43;8.37;;;;;;;;;;4976554;28;20223;-80
2022/09/09 03:49:49;;;;;;;2.17;2.07;;;;;;;;;;4976181;28;20259;-80
2022/09/09 03:52:18;;;;;;;1.30;1.27;;;;;;;;;;4976547;28;20204;-80
2022/09/09 03:54:56;;;;;;;12.80;9.50;;;;;;;;;;4977104;28;20226;-80
2022/09/09 03:57:25;;;;;;;6.23;5.23;;;;;;;;;;4982800;28;20207;-80
2022/09/09 03:59:54;;;;;;;11.43;7.73;;;;;;;;;;4976413;28;20217;-81
2022/09/09 04:02:22;;;;;;;0.83;0.83;;;;;;;;;;4976346;28;20250;-80
2022/09/09 04:04:50;;;;;;;9.53;6.43;;;;;;;;;;4976540;28;20207;-80
2022/09/09 04:07:19;;;;;;;1.13;1.10;;;;;;;;;;4976488;28;20298;-80
2022/09/09 04:09:47;;;;;;;3.00;2.80;;;;;;;;;;4992444;28;20214;-80
2022/09/09 04:12:17;;;;;;;6.40;3.70;;;;;;;;;;4976876;28;20199;-80
2022/09/09 04:14:46;;;;;;;5.60;3.40;;;;;;;;;;4976690;28;20203;-80
2022/09/09 04:17:14;;;;;;;1.23;1.13;;;;;;;;;;4966564;28;20287;-80
2022/09/09 04:19:43;;;;;;;7.93;6.00;;;;;;;;;;4974833;28;20191;-80
2022/09/09 04:22:11;;;;;;;1.33;1.23;;;;;;;;;;4993450;28;20222;-80
2022/09/09 04:24:39;;;;;;;1.37;1.27;;;;;;;;;;4976688;28;20291;-80
2022/09/09 04:27:12;;;;;;;9.83;7.80;;;;;;;;;;4993496;28;20238;-80
2022/09/09 04:29:42;;;;;;;14.23;7.20;;;;;;;;;;4993651;28;20217;-80
2022/09/09 04:32:10;;;;;;;6.90;5.40;;;;;;;;;;4976343;28;20204;-80
2022/09/09 04:34:39;;;;;;;16.43;11.07;;;;;;;;;;4980336;28;20261;-80
2022/09/09 04:37:07;;;;;;;12.47;10.87;;;;;;;;;;4993190;28;20199;-80
2022/09/09 04:39:36;;;;;;;13.07;9.30;;;;;;;;;;4976798;28;20230;-80
2022/09/09 04:42:05;;;;;;;10.03;7.97;;;;;;;;;;4975378;28;20208;-80
2022/09/09 04:44:33;;;;;;;19.37;10.40;;;;;;;;;;4976565;28;20229;-80
2022/09/09 04:47:03;;;;;;;15.47;11.60;;;;;;;;;;4992933;28;20236;-80
2022/09/09 04:49:31;;;;;;;12.53;10.00;;;;;;;;;;4993169;28;20208;-80
2022/09/09 04:52:00;;;;;;;14.60;13.10;;;;;;;;;;4983420;28;20199;-80
2022/09/09 04:54:29;;;;;;;15.03;11.80;;;;;;;;;;4985492;28;20257;-80
2022/09/09 04:56:57;;;;;;;10.53;7.97;;;;;;;;;;4975727;28;20213;-80
2022/09/09 04:59:26;;;;;;;7.00;6.30;;;;;;;;;;4975894;28;20297;-80
2022/09/09 05:01:55;;;;;;;1.87;1.73;;;;;;;;;;4975551;28;20247;-80
2022/09/09 05:04:25;;;;;;;10.40;7.67;;;;;;;;;;4975858;28;20219;-80
2022/09/09 05:06:53;;;;;;;15.43;12.10;;;;;;;;;;4975909;28;20222;-80
2022/09/09 05:09:21;;;;;;;9.47;5.33;;;;;;;;;;4993539;28;20292;-84
2022/09/09 05:11:50;;;;;;;11.53;9.40;;;;;;;;;;4992997;28;20203;-84
2022/09/09 05:14:20;;;;;;;14.73;10.53;;;;;;;;;;4963896;28;20207;-84
2022/09/09 05:16:49;;;;;;;3.10;2.80;;;;;;;;;;4976045;28;20269;-84
2022/09/09 05:19:19;;;;;;;6.60;5.17;;;;;;;;;;4975739;28;20226;-83
2022/09/09 05:21:49;;;;;;;2.97;2.77;;;;;;;;;;4995853;28;20207;-84
2022/09/09 05:24:18;;;;;;;8.57;6.67;;;;;;;;;;4979021;28;20211;-84
2022/09/09 05:26:46;;;;;;;3.40;3.10;;;;;;;;;;4979330;28;20241;-83
2022/09/09 05:29:17;;;;;;;2.03;1.63;;;;;;;;;;4996339;28;20226;-84
2022/09/09 05:31:45;;;;;;;3.17;2.87;;;;;;;;;;4996332;28;20208;-84
2022/09/09 05:34:13;;;;;;;0.80;0.80;;;;;;;;;;4979425;28;20205;-84
2022/09/09 05:36:42;;;;;;;4.73;3.77;;;;;;;;;;4996512;28;20208;-84
2022/09/09 05:39:12;;;;;;;4.53;2.37;;;;;;;;;;4978831;28;20219;-84
2022/09/09 05:41:41;;;;;;;2.00;1.43;;;;;;;;;;4978897;28;20202;-84
2022/09/09 05:44:09;;;;;;;1.83;1.70;;;;;;;;;;4978435;28;20335;-84
2022/09/09 05:46:37;;;;;;;6.50;3.80;;;;;;;;;;4978948;28;20227;-83
2022/09/09 05:49:06;;;;;;;8.00;4.40;;;;;;;;;;4978214;28;20207;-83
2022/09/09 05:51:34;;;;;;;5.57;4.63;;;;;;;;;;4979121;28;20254;-83
2022/09/09 05:54:03;;;;;;;6.37;3.13;;;;;;;;;;4996166;28;20195;-83
2022/09/09 05:56:33;;;;;;;4.60;3.53;;;;;;;;;;4996084;28;20534;-83
2022/09/09 05:59:01;;;;;;;11.63;4.30;;;;;;;;;;4967148;28;20399;-83
2022/09/09 06:01:33;;;;;;;5.30;4.53;;;;;;;;;;4977624;28;20330;-83
2022/09/09 06:04:01;;;;;;;7.93;4.67;;;;;;;;;;4995675;28;20297;-83
2022/09/09 06:06:36;;;;;;;6.87;5.20;;;;;;;;;;4978611;28;20230;-83
2022/09/09 06:09:09;;;;;;;9.13;5.23;;;;;;;;;;4988273;28;20236;-82
2022/09/09 06:11:39;;;;;;;8.90;4.17;;;;;;;;;;4997102;28;20191;-83
2022/09/09 06:14:08;;;;;;;1.50;1.40;;;;;;;;;;4978886;28;20241;-83
2022/09/09 06:16:37;;;;;;;10.17;5.23;;;;;;;;;;4978361;28;20223;-83
2022/09/09 06:19:06;;;;;;;8.13;3.10;;;;;;;;;;4978611;28;20268;-83
2022/09/09 06:21:36;;;;;;;5.93;3.70;;;;;;;;;;4978635;28;20208;-83
2022/09/09 06:24:05;;;;;;;7.90;4.70;;;;;;;;;;4978212;28;20251;-83
2022/09/09 06:26:34;;;;;;;6.60;5.97;;;;;;;;;;4978035;28;20355;-83
2022/09/09 06:29:04;;;;;;;4.53;3.20;;;;;;;;;;4977369;28;20725;-83
2022/09/09 06:31:34;;;;;;;5.30;3.70;;;;;;;;;;4977807;28;20210;-83
2022/09/09 06:34:03;;;;;;;9.10;5.37;;;;;;;;;;4977808;28;20230;-83
2022/09/09 06:36:32;;;;;;;7.40;5.10;;;;;;;;;;4995129;28;20235;-84
2022/09/09 06:39:01;;;;;;;7.47;5.80;;;;;;;;;;4977789;28;20230;-82
2022/09/09 06:41:30;;;;;;;7.67;4.93;;;;;;;;;;4995019;28;20215;-81
2022/09/09 06:43:58;;;;;;;10.80;5.60;;;;;;;;;;4977830;28;20259;-81
2022/09/09 06:46:32;;;;;;;6.57;5.10;;;;;;;;;;4977579;28;20222;-80
2022/09/09 06:49:02;;;;;;;6.17;4.27;;;;;;;;;;4994651;28;20250;-82
2022/09/09 06:51:31;;;;;;;10.03;5.37;;;;;;;;;;4995214;28;20210;-82
2022/09/09 06:54:02;;;;;;;7.00;4.93;;;;;;;;;;4995081;28;20295;-81
2022/09/09 06:56:31;;;;;;;6.03;3.93;;;;;;;;;;4977635;28;20204;-82
2022/09/09 06:59:00;;;;;;;9.87;6.37;;;;;;;;;;4973880;28;20207;-82
2022/09/09 07:01:31;;;;;;;6.87;4.20;;;;;;;;;;4976352;28;20260;-82
2022/09/09 07:04:00;;;;;;;11.50;7.50;;;;;;;;;;4976888;28;20304;-83
2022/09/09 07:06:29;;;;;;;7.50;4.80;;;;;;;;;;4960620;28;20249;-83
2022/09/09 07:08:58;;;;;;;7.20;5.67;;;;;;;;;;4977063;28;20203;-83
2022/09/09 07:11:28;;;;;;;10.60;7.77;;;;;;;;;;4978107;28;20203;-81
2022/09/09 07:13:58;;;;;;;8.17;7.37;;;;;;;;;;4980092;28;20204;-83
2022/09/09 07:16:29;;;;;;;12.50;7.13;;;;;;;;;;4965126;28;20205;-83
2022/09/09 07:18:58;;;;;;;11.13;5.83;;;;;;;;;;4987574;28;20207;-82
2022/09/09 07:21:27;;;;;;;7.63;6.70;;;;;;;;;;4990496;28;20242;-82
2022/09/09 07:23:56;;;;;;;12.17;5.40;;;;;;;;;;4971303;28;20207;-82
2022/09/09 07:26:26;;;;;;;14.57;7.40;;;;;;;;;;4979498;28;20264;-81
2022/09/09 07:28:55;;;;;;;11.13;5.83;;;;;;;;;;4968582;28;20199;-82
2022/09/09 07:31:25;;;;;;;10.43;7.60;;;;;;;;;;4979393;28;20282;-83
2022/09/09 07:33:54;;;;;;;8.67;6.80;;;;;;;;;;4963840;28;20230;-81
2022/09/09 07:36:25;;;;;;;8.97;5.80;;;;;;;;;;4963683;28;20211;-81
2022/09/09 07:39:01;;;;;;;9.03;7.43;;;;;;;;;;4959552;28;20206;-81
2022/09/09 07:41:31;;;;;;;8.50;6.57;;;;;;;;;;4975265;28;20202;-82
2022/09/09 07:44:00;;;;;;;14.50;6.10;;;;;;;;;;4978434;28;20230;-80
2022/09/09 07:46:28;;;;;;;9.53;7.47;;;;;;;;;;4971040;28;20206;-80
2022/09/09 07:48:58;;;;;;;11.63;7.20;;;;;;;;;;4982243;28;20226;-81
2022/09/09 07:51:29;;;;;;;10.20;6.50;;;;;;;;;;4969196;28;20237;-81
2022/09/09 07:53:59;;;;;;;12.00;8.00;;;;;;;;;;4968359;28;20204;-81
2022/09/09 07:56:28;;;;;;;6.87;5.37;;;;;;;;;;4981649;28;20212;-81
2022/09/09 07:58:57;;;;;;;10.73;7.57;;;;;;;;;;4983721;28;20234;-81
2022/09/09 08:01:27;;;;;;;9.97;7.77;;;;;;;;;;4966891;28;20219;-81
2022/09/09 08:03:58;;;;;;;11.00;6.43;;;;;;;;;;4968220;28;20286;-81
2022/09/09 08:06:29;;;;;;;12.17;7.10;;;;;;;;;;4983356;28;20231;-80
2022/09/09 08:08:57;;;;;;;10.30;6.00;;;;;;;;;;4976317;28;20212;-81
2022/09/09 08:11:27;;;;;;;7.73;6.77;;;;;;;;;;4965601;28;20217;-81
2022/09/09 08:14:00;;;;;;;10.00;6.80;;;;;;;;;;4968490;28;20300;-80
2022/09/09 08:16:31;;;;;;;8.27;6.87;;;;;;;;;;4977818;28;20210;-81
2022/09/09 08:19:00;;;;;;;13.80;7.57;;;;;;;;;;4984787;28;20199;-82
2022/09/09 08:21:31;;;;;;;11.50;8.03;;;;;;;;;;4967629;28;20209;-83
2022/09/09 08:24:00;;;;;;;10.67;7.37;;;;;;;;;;4962111;28;20211;-83
2022/09/09 08:26:29;;;;;;;9.83;6.30;;;;;;;;;;4976358;28;20242;-81
2022/09/09 08:29:01;;;;;;;10.63;9.10;;;;;;;;;;4979097;28;20196;-82
2022/09/09 08:31:30;;;;;;;10.80;7.53;;;;;;;;;;4983625;28;20208;-82
2022/09/09 08:34:00;;;;;;;8.60;6.33;;;;;;;;;;4979525;28;20201;-83
2022/09/09 08:36:32;;;;;;;11.90;6.63;;;;;;;;;;4968602;28;20211;-83
2022/09/09 08:39:01;;;;;;;9.93;6.00;;;;;;;;;;4973309;28;20208;-82
2022/09/09 08:41:45;;;;;;;10.40;6.93;;;;;;;;;;4982704;28;20200;-83
2022/09/09 08:44:16;;;;;;;9.67;5.67;;;;;;;;;;4982948;28;20214;-84
2022/09/09 08:46:50;;;;;;;12.00;7.50;;;;;;;;;;4977821;28;20215;-83
2022/09/09 08:49:27;;;;;;;11.03;4.67;;;;;;;;;;4979427;28;20211;-83
2022/09/09 08:51:58;;;;;;;9.67;6.80;;;;;;;;;;4964724;28;20222;-83
2022/09/09 08:54:30;;;;;;;7.27;5.63;;;;;;;;;;4967354;28;20248;-83
2022/09/09 08:57:21;;;;;;;8.87;5.03;;;;;;;;;;4969082;28;20307;-84
2022/09/09 08:59:50;;;;;;;11.27;6.40;;;;;;;;;;4981599;28;20208;-83
2022/09/09 09:02:24;;;;;;;9.60;7.57;;;;;;;;;;4987119;28;20232;-82
2022/09/09 09:05:11;;;;;;;7.40;5.63;;;;;;;;;;4970895;28;20217;-81
2022/09/09 09:07:47;;;;;;;9.87;6.77;;;;;;;;;;4968277;28;20256;-82
2022/09/09 09:10:20;;;;;;;7.03;5.43;;;;;;;;;;4970998;28;20271;-81
2022/09/09 09:13:14;;;;;;;9.23;5.90;;;;;;;;;;4983423;28;20202;-83
2022/09/09 09:15:43;;;;;;;6.73;4.73;;;;;;;;;;4963100;28;20211;-82
2022/09/09 09:18:13;;;;;;;8.30;5.97;;;;;;;;;;4985210;28;20196;-83
2022/09/09 09:20:48;;;;;;;8.03;5.73;;;;;;;;;;4965281;28;20213;-83
2022/09/09 09:23:23;;;;;;;8.20;5.30;;;;;;;;;;4971205;28;20206;-84
2022/09/09 09:25:54;;;;;;;13.73;6.50;;;;;;;;;;4975403;28;20223;-84
2022/09/09 09:28:25;;;;;;;7.37;6.60;;;;;;;;;;4983139;28;20204;-84
2022/09/09 09:30:57;;;;;;;11.97;6.80;;;;;;;;;;4972895;28;20215;-83
2022/09/09 09:33:28;;;;;;;7.03;5.93;;;;;;;;;;4968511;28;20212;-84
2022/09/09 09:35:56;;;;;;;9.13;5.90;;;;;;;;;;4966646;28;20234;-83
2022/09/09 09:38:27;;;;;;;9.07;7.03;;;;;;;;;;4963413;28;20195;-84
2022/09/09 09:41:18;;;;;;;9.43;6.60;;;;;;;;;;4966615;28;20211;-83
2022/09/09 09:43:55;;;;;;;8.80;5.97;;;;;;;;;;4961819;28;20227;-84
2022/09/09 09:46:25;;;;;;;9.23;5.80;;;;;;;;;;4987357;28;20227;-84
2022/09/09 09:48:59;;;;;;;8.33;4.97;;;;;;;;;;4971597;28;20270;-85
2022/09/09 09:51:28;;;;;;;8.30;4.40;;;;;;;;;;4962169;28;20254;-84
2022/09/09 09:54:09;;;;;;;12.07;6.37;;;;;;;;;;4984378;28;20197;-85
2022/09/09 09:56:38;;;;;;;8.50;5.60;;;;;;;;;;4968375;28;20196;-84
2022/09/09 09:59:06;;;;;;;8.73;6.00;;;;;;;;;;4968223;28;20235;-84
2022/09/09 10:01:51;;;;;;;12.10;5.40;;;;;;;;;;4968114;28;20216;-84
2022/09/09 10:04:23;;;;;;;10.60;5.77;;;;;;;;;;4985312;28;20240;-85
2022/09/09 10:06:54;;;;;;;7.90;5.60;;;;;;;;;;4964731;28;20227;-85
2022/09/09 10:09:25;;;;;;;11.53;5.83;;;;;;;;;;4983041;28;20219;-84
2022/09/09 10:11:57;;;;;;;8.00;4.97;;;;;;;;;;4981220;28;20197;-84
2022/09/09 10:14:29;;;;;;;6.20;3.50;;;;;;;;;;4966358;28;20273;-85
2022/09/09 10:17:03;;;;;;;10.37;5.83;;;;;;;;;;4974734;28;20228;-84
2022/09/09 10:19:33;;;;;;;11.43;5.57;;;;;;;;;;4965014;28;20294;-84
2022/09/09 10:22:07;;;;;;;3.83;2.97;;;;;;;;;;4971351;28;20211;-84
2022/09/09 10:24:43;;;;;;;7.10;5.47;;;;;;;;;;4982932;28;20236;-85
2022/09/09 10:27:25;;;;;;;7.03;4.37;;;;;;;;;;4974635;28;20211;-85
2022/09/09 10:30:08;;;;;;;4.43;3.93;;;;;;;;;;4981623;28;20213;-83
2022/09/09 10:32:42;;;;;;;6.53;4.80;;;;;;;;;;4970012;28;20212;-84
2022/09/09 10:35:13;;;;;;;8.30;5.53;;;;;;;;;;4959083;28;20208;-84
2022/09/09 10:37:46;;;;;;;8.37;5.93;;;;;;;;;;4986301;28;20259;-84
2022/09/09 10:40:30;;;;;;;5.57;4.97;;;;;;;;;;4966490;28;20211;-84
2022/09/09 10:43:02;;;;;;;8.87;5.87;;;;;;;;;;4967707;28;20247;-84
2022/09/09 10:45:34;;;;;;;9.57;5.50;;;;;;;;;;4969190;28;20220;-85
2022/09/09 10:48:21;;;;;;;7.70;5.67;;;;;;;;;;4978860;28;20220;-85
2022/09/09 10:50:56;;;;;;;7.27;4.60;;;;;;;;;;4959089;28;20216;-84
2022/09/09 10:53:39;;;;;;;5.40;4.80;;;;;;;;;;4982891;28;20308;-86
2022/09/09 10:56:10;;;;;;;6.87;3.83;;;;;;;;;;4981849;28;20200;-85
2022/09/09 10:58:42;;;;;;;7.83;4.70;;;;;;;;;;4965830;28;20256;-85
2022/09/09 11:01:15;;;;;;;6.90;4.20;;;;;;;;;;4966527;28;20227;-86
2022/09/09 11:03:45;;;;;;;4.63;3.13;;;;;;;;;;4981419;28;20363;-87
2022/09/09 11:06:15;;;;;;;4.70;3.40;;;;;;;;;;4983347;28;20209;-86
2022/09/09 11:08:44;;;;;;;5.47;3.60;;;;;;;;;;4981927;28;20204;-86
2022/09/09 11:11:17;;;;;;;6.43;4.50;;;;;;;;;;4964644;28;20208;-85
2022/09/09 11:13:49;;;;;;;7.57;4.57;;;;;;;;;;4981384;28;20200;-85
2022/09/09 11:16:24;;;;;;;4.50;3.07;;;;;;;;;;4980917;28;20206;-84
2022/09/09 11:18:57;;;;;;;5.90;4.00;;;;;;;;;;4985286;28;20390;-86
2022/09/09 11:21:29;;;;;;;5.40;3.63;;;;;;;;;;4963326;28;20292;-85
2022/09/09 11:23:59;;;;;;;4.90;3.27;;;;;;;;;;4978996;28;20220;-84
2022/09/09 11:26:34;;;;;;;6.97;3.53;;;;;;;;;;4964311;28;20216;-86
2022/09/09 11:29:11;;;;;;;7.57;3.27;;;;;;;;;;4974784;28;20207;-87
2022/09/09 11:31:46;;;;;;;5.20;3.83;;;;;;;;;;4983229;28;20214;-86
2022/09/09 11:34:25;;;;;;;7.57;5.47;;;;;;;;;;4983529;28;20286;-87
2022/09/09 11:37:10;;;;;;;7.37;4.40;;;;;;;;;;4981853;28;20239;-88
2022/09/09 11:39:53;;;;;;;8.23;5.07;;;;;;;;;;4963954;28;20211;-88
2022/09/09 11:42:26;;;;;;;6.87;5.17;;;;;;;;;;4965299;28;20209;-85
2022/09/09 11:44:54;;;;;;;7.33;4.00;;;;;;;;;;4982509;28;20313;-87
2022/09/09 11:47:29;;;;;;;9.30;5.50;;;;;;;;;;4962264;28;20267;-87
2022/09/09 11:50:08;;;;;;;8.13;4.30;;;;;;;;;;4966306;28;20235;-87
2022/09/09 11:52:38;;;;;;;5.00;3.57;;;;;;;;;;4964627;28;20204;-87
2022/09/09 11:55:11;;;;;;;7.53;4.67;;;;;;;;;;4984745;28;20200;-87
2022/09/09 11:58:00;;;;;;;3.60;3.13;;;;;;;;;;4963130;28;20216;-86
2022/09/09 12:00:32;;;;;;;6.43;4.43;;;;;;;;;;4978224;28;20188;-85
2022/09/09 12:03:01;;;;;;;7.27;4.40;;;;;;;;;;4966824;28;20239;-85
2022/09/09 12:05:37;;;;;;;4.30;3.23;;;;;;;;;;4971124;28;20252;-88
2022/09/09 12:08:08;;;;;;;4.83;2.67;;;;;;;;;;4976419;28;20224;-87
2022/09/09 12:10:40;;;;;;;5.20;4.20;;;;;;;;;;4968712;28;20227;-85
2022/09/09 12:13:26;;;;;;;3.00;2.67;;;;;;;;;;4961201;28;20213;-87
2022/09/09 12:15:57;;;;;;;3.73;1.63;;;;;;;;;;4980187;28;20235;-86
2022/09/09 12:18:26;;;;;;;4.63;3.20;;;;;;;;;;4982998;28;20210;-87
2022/09/09 12:20:59;;;;;;;3.17;1.97;;;;;;;;;;4976737;28;20201;-86
2022/09/09 12:23:32;;;;;;;4.67;2.90;;;;;;;;;;4949573;28;20201;-87
2022/09/09 12:26:14;;;;;;;4.50;4.10;;;;;;;;;;4974765;28;20197;-87
2022/09/09 12:28:51;;;;;;;4.00;3.03;;;;;;;;;;4979551;28;20202;-87
2022/09/09 12:31:25;;;;;;;4.60;3.60;;;;;;;;;;4980791;28;20197;-86
2022/09/09 12:33:56;;;;;;;5.57;3.43;;;;;;;;;;4985433;28;20200;-87
2022/09/09 12:36:26;;;;;;;7.30;3.93;;;;;;;;;;4984219;28;20210;-86
2022/09/09 12:38:55;;;;;;;3.57;2.87;;;;;;;;;;4981743;28;20204;-87
2022/09/09 12:41:27;;;;;;;3.10;2.77;;;;;;;;;;4985430;28;20201;-87
2022/09/09 12:44:05;;;;;;;3.63;3.30;;;;;;;;;;4975741;28;20250;-87
2022/09/09 12:46:38;;;;;;;6.03;2.50;;;;;;;;;;4989861;28;20217;-87
2022/09/09 12:49:07;;;;;;;4.87;3.30;;;;;;;;;;4982115;28;20210;-86
2022/09/09 12:51:39;;;;;;;5.07;3.50;;;;;;;;;;4966045;28;20205;-90
2022/09/09 12:54:15;;;;;;;4.07;2.43;;;;;;;;;;4975358;28;20203;-87
2022/09/09 12:56:47;;;;;;;3.53;2.80;;;;;;;;;;4972128;28;20202;-87
2022/09/09 12:59:30;;;;;;;8.63;2.90;;;;;;;;;;4965333;28;20205;-88
2022/09/09 13:02:28;;;;;;;5.37;3.93;;;;;;;;;;4981271;28;20249;-86
2022/09/09 13:05:16;;;;;;;4.33;3.70;;;;;;;;;;4960865;28;20219;-87
2022/09/09 13:07:45;;;;;;;2.13;1.83;;;;;;;;;;4966211;28;20219;-87
2022/09/09 13:10:15;;;;;;;5.93;4.40;;;;;;;;;;4982814;28;20233;-89
2022/09/09 13:16:57;;;;;;;5.77;5.07;;;;;;;;;;4844702;29;20254;-87
2022/09/09 13:19:31;;;;;;;6.53;4.77;;;;;;;;;;4900150;28;20232;-86
2022/09/09 13:22:02;;;;;;;6.27;4.97;;;;;;;;;;4963457;28;20229;-87
2022/09/09 13:24:32;;;;;;;4.77;3.87;;;;;;;;;;4963649;28;20212;-85
2022/09/09 13:27:25;;;;;;;5.40;3.60;;;;;;;;;;4986253;28;20216;-88
2022/09/09 13:30:24;;;;;;;4.43;3.87;;;;;;;;;;4983004;28;20207;-84
2022/09/09 13:36:31;;;;;;;6.70;4.70;;;;;;;;;;4971905;28;20244;-87
2022/09/09 13:43:20;;;;;;;4.10;3.70;;;;;;;;;;4934320;28;20213;-87
2022/09/09 13:46:31;;;;;;;;;;;;;;;;;;;;;
2022/09/09 13:49:20;;;;;;;6.57;4.70;;;;;;;;;;4968953;28;20234;-84
2022/09/09 14:02:43;;;;;;;6.93;4.40;;;;;;;;;;4938110;28;20297;-88
2022/09/09 14:05:12;;;;;;;3.90;3.07;;;;;;;;;;4978317;28;20300;-87
2022/09/09 14:08:11;;;;;;;;;;;;;;;;;;;;;
2022/09/09 14:11:33;;;;;;;5.33;3.63;;;;;;;;;;4970392;28;20286;-86
2022/09/09 14:14:05;;;;;;;4.93;3.63;;;;;;;;;;4968243;28;20214;-88
2022/09/09 14:16:35;;;;;;;3.87;3.47;;;;;;;;;;4965943;28;20197;-88
2022/09/09 14:19:45;;;;;;;3.87;2.87;;;;;;;;;;4965915;28;20212;-88
2022/09/09 14:22:26;;;;;;;4.00;3.00;;;;;;;;;;4962785;28;20208;-88
2022/09/09 14:24:57;;;;;;;3.03;2.67;;;;;;;;;;4983685;28;20267;-89
2022/09/09 14:27:47;;;;;;;3.00;2.03;;;;;;;;;;4979669;28;20430;-85
2022/09/09 14:34:18;;;;;;;4.37;2.90;;;;;;;;;;4940062;28;20386;-84
2022/09/09 14:39:38;;;;;;;4.27;3.87;;;;;;;;;;4946516;28;20213;-85
2022/09/09 14:42:26;;;;;;;4.70;3.57;;;;;;;;;;4975179;28;20207;-87
2022/09/09 14:45:23;;;;;;;4.27;3.87;;;;;;;;;;4968578;28;20208;-86
2022/09/09 14:55:34;;;;;;;4.00;3.60;;;;;;;;;;4940292;28;20219;-86
2022/09/09 15:01:43;;;;;;;4.97;4.03;;;;;;;;;;4917212;28;20228;-86
2022/09/09 15:04:27;;;;;;;4.40;4.00;;;;;;;;;;4943847;28;20269;-85
2022/09/09 15:11:04;;;;;;;6.37;5.00;;;;;;;;;;4920351;29;20249;-85
2022/09/09 15:13:35;;;;;;;7.27;4.40;;;;;;;;;;4967085;28;20208;-85
2022/09/09 15:16:08;;;;;;;6.80;3.60;;;;;;;;;;4963894;28;20222;-91
2022/09/09 15:18:42;;;;;;;1.60;1.50;;;;;;;;;;4960601;28;20204;-88
2022/09/09 15:21:11;;;;;;;4.30;2.83;;;;;;;;;;4984481;28;20291;-83
2022/09/09 15:23:41;;;;;;;3.90;2.73;;;;;;;;;;4965441;28;20252;-86
2022/09/09 15:26:11;;;;;;;5.43;2.93;;;;;;;;;;4965714;28;20230;-87
2022/09/09 15:28:40;;;;;;;5.50;3.03;;;;;;;;;;4965617;28;20216;-86
2022/09/09 15:31:09;;;;;;;2.30;1.93;;;;;;;;;;4962150;28;20205;-86
2022/09/09 15:33:38;;;;;;;6.40;2.70;;;;;;;;;;4958972;28;20210;-86
2022/09/09 15:36:17;;;;;;;5.53;2.47;;;;;;;;;;4962249;28;20200;-83
2022/09/09 15:38:45;;;;;;;6.73;2.20;;;;;;;;;;4975436;28;20227;-82
2022/09/09 15:41:18;;;;;;;4.00;2.27;;;;;;;;;;4970373;28;20235;-83
2022/09/09 15:43:47;;;;;;;5.13;2.27;;;;;;;;;;4990137;28;20213;-83
2022/09/09 15:46:27;;;;;;;5.43;2.53;;;;;;;;;;4994029;28;20204;-83
2022/09/09 15:48:56;;;;;;;4.70;2.47;;;;;;;;;;4983684;28;20210;-83
2022/09/09 15:51:25;;;;;;;8.30;3.63;;;;;;;;;;4976980;28;20250;-83
2022/09/09 15:54:12;;;;;;;7.63;2.30;;;;;;;;;;4992497;28;20215;-84
2022/09/09 15:56:42;;;;;;;6.43;1.60;;;;;;;;;;4994394;28;20292;-83